Aeroporto :
LOGIN :

Iscrizione | Disclaimer

   EN    FR    IT 

 










Sommario :    VFR   VFR Marginale   IFR   IFR Intensivo   IFR Molto Intensivo
Visibilità : 
Base nubi : 
>= 8 km
>= 3000ft
5 / 8 km
1000 / 3000 ft
1500m / 5 km
500 / 1000 ft
800 / 1500m
200 / 500 ft
< 800m
< 200 ft
Simboli :   Temporali  Nebbia  Neve Forte  Precipitazioni Forti  Vento > 20 kt
SIGMETs :   Varie  Temporali  Ghiacco  Turbolenza  Onda orograficha  Ceneri Vulcaniche






- Altitudine del aeroporto : 57 ft
- Codice IATA : KRS


ENCN - Kristiansand Kjevik

ULTIMO METAR :
  • 071320Z 28008KT 240V320 CAVOK 15/M00 Q1029

METARs OBSOLETI :
  • 071250Z 27010KT 250V310 CAVOK 14/M01 Q1029
  • 071220Z 28007KT 230V320 CAVOK 14/M00 Q1029
  • 071150Z 29008KT 250V310 CAVOK 14/M00 Q1029
  • 071120Z 27008KT 230V330 CAVOK 13/01 Q1029
  • 071050Z 26009KT 240V300 CAVOK 13/01 Q1028

TAF TAF ENCN
Valido dal 07 a 12 ore il 07 a 21 ore UTC


071100Z 0712/0721 27010KT CAVOK
BECMG 0715/0717 19005KT



MetMap, La meteo Aeronautica in un colpo d'occhio ! - Copyright ORBIFLY Dicembre 2007 - Disclaimer

ORBIFLY MET'MAP TEAM :

Programmazione e sviluppo : Alexandra Zaïnal
Concezione : Baudouin d'Aumeries
Aiuto per la programmazione : Marc-Olivier Méhu
Supporto tecnico e logistico : Manuel Goepfert
Aiuto per la traduzione : Arnaldo La Scala

Contatto : metmap@orbifly.com




FONTI E CREDITI :

   NOAA